sensor_id;sensor_type;location;lat;lon;timestamp;P1;durP1;ratioP1;P2;durP2;ratioP2
27999;SDS011;15328;50.860;10.562;2023-03-14T00:00:18;2.20;;;1.00;;
27999;SDS011;15328;50.860;10.562;2023-03-14T00:05:19;4.65;;;1.13;;
27999;SDS011;15328;50.860;10.562;2023-03-14T00:10:20;1.63;;;1.10;;
27999;SDS011;15328;50.860;10.562;2023-03-14T00:15:20;2.70;;;1.10;;
27999;SDS011;15328;50.860;10.562;2023-03-14T00:20:20;3.47;;;1.10;;
27999;SDS011;15328;50.860;10.562;2023-03-14T00:25:21;2.43;;;1.17;;
27999;SDS011;15328;50.860;10.562;2023-03-14T00:30:21;1.77;;;1.20;;
27999;SDS011;15328;50.860;10.562;2023-03-14T00:35:22;3.17;;;1.00;;
27999;SDS011;15328;50.860;10.562;2023-03-14T00:40:22;2.60;;;1.33;;
27999;SDS011;15328;50.860;10.562;2023-03-14T00:45:22;1.40;;;1.27;;
27999;SDS011;15328;50.860;10.562;2023-03-14T00:50:23;2.07;;;1.17;;
27999;SDS011;15328;50.860;10.562;2023-03-14T00:55:23;3.27;;;1.17;;
27999;SDS011;15328;50.860;10.562;2023-03-14T01:00:23;2.78;;;1.23;;
27999;SDS011;15328;50.860;10.562;2023-03-14T01:05:24;1.20;;;0.93;;
27999;SDS011;15328;50.860;10.562;2023-03-14T01:10:24;1.40;;;1.00;;
27999;SDS011;15328;50.860;10.562;2023-03-14T01:15:25;1.77;;;1.25;;
27999;SDS011;15328;50.860;10.562;2023-03-14T01:20:25;1.58;;;0.90;;
27999;SDS011;15328;50.860;10.562;2023-03-14T01:25:26;2.08;;;1.05;;
27999;SDS011;15328;50.860;10.562;2023-03-14T01:30:27;1.60;;;1.20;;
27999;SDS011;15328;50.860;10.562;2023-03-14T01:35:27;2.30;;;1.15;;
27999;SDS011;15328;50.860;10.562;2023-03-14T01:40:27;5.47;;;1.10;;
27999;SDS011;15328;50.860;10.562;2023-03-14T01:51:17;3.28;;;1.10;;
27999;SDS011;15328;50.860;10.562;2023-03-14T01:56:21;3.38;;;1.20;;
27999;SDS011;15328;50.860;10.562;2023-03-14T02:01:23;4.00;;;1.10;;
27999;SDS011;15328;50.860;10.562;2023-03-14T02:06:27;2.88;;;1.20;;
27999;SDS011;15328;50.860;10.562;2023-03-14T02:11:42;4.00;;;1.08;;
27999;SDS011;15328;50.860;10.562;2023-03-14T02:16:43;3.03;;;1.08;;
27999;SDS011;15328;50.860;10.562;2023-03-14T02:21:53;4.32;;;1.17;;
27999;SDS011;15328;50.860;10.562;2023-03-14T02:32:13;2.88;;;0.93;;
27999;SDS011;15328;50.860;10.562;2023-03-14T02:37:15;3.03;;;0.80;;
27999;SDS011;15328;50.860;10.562;2023-03-14T02:42:17;4.13;;;1.10;;
27999;SDS011;15328;50.860;10.562;2023-03-14T02:47:18;3.70;;;1.13;;
27999;SDS011;15328;50.860;10.562;2023-03-14T02:52:22;3.65;;;1.50;;
27999;SDS011;15328;50.860;10.562;2023-03-14T02:57:22;4.13;;;1.30;;
27999;SDS011;15328;50.860;10.562;2023-03-14T03:02:22;3.10;;;1.03;;
27999;SDS011;15328;50.860;10.562;2023-03-14T03:07:23;3.40;;;1.27;;
27999;SDS011;15328;50.860;10.562;2023-03-14T03:12:24;7.32;;;1.42;;
27999;SDS011;15328;50.860;10.562;2023-03-14T03:17:25;5.85;;;1.10;;
27999;SDS011;15328;50.860;10.562;2023-03-14T03:22:25;7.93;;;1.77;;
27999;SDS011;15328;50.860;10.562;2023-03-14T03:27:25;3.80;;;1.20;;
27999;SDS011;15328;50.860;10.562;2023-03-14T03:32:26;3.10;;;1.20;;
27999;SDS011;15328;50.860;10.562;2023-03-14T03:37:26;3.28;;;1.10;;
27999;SDS011;15328;50.860;10.562;2023-03-14T03:42:27;5.25;;;1.10;;
27999;SDS011;15328;50.860;10.562;2023-03-14T03:47:29;3.67;;;1.10;;
27999;SDS011;15328;50.860;10.562;2023-03-14T03:52:31;7.35;;;1.67;;
27999;SDS011;15328;50.860;10.562;2023-03-14T03:57:31;4.15;;;1.00;;
27999;SDS011;15328;50.860;10.562;2023-03-14T04:02:32;5.93;;;1.27;;
27999;SDS011;15328;50.860;10.562;2023-03-14T04:07:32;5.22;;;1.05;;
27999;SDS011;15328;50.860;10.562;2023-03-14T04:12:33;4.20;;;1.05;;
27999;SDS011;15328;50.860;10.562;2023-03-14T04:17:33;2.60;;;0.93;;
27999;SDS011;15328;50.860;10.562;2023-03-14T04:22:33;3.63;;;1.02;;
27999;SDS011;15328;50.860;10.562;2023-03-14T04:27:34;4.73;;;1.67;;
27999;SDS011;15328;50.860;10.562;2023-03-14T04:32:34;3.67;;;1.10;;
27999;SDS011;15328;50.860;10.562;2023-03-14T04:37:34;5.28;;;0.98;;
27999;SDS011;15328;50.860;10.562;2023-03-14T04:42:35;7.63;;;1.20;;
27999;SDS011;15328;50.860;10.562;2023-03-14T04:47:35;5.90;;;1.30;;
27999;SDS011;15328;50.860;10.562;2023-03-14T04:52:37;5.40;;;1.17;;
27999;SDS011;15328;50.860;10.562;2023-03-14T04:57:37;2.97;;;1.00;;
27999;SDS011;15328;50.860;10.562;2023-03-14T05:02:38;6.88;;;1.02;;
27999;SDS011;15328;50.860;10.562;2023-03-14T05:07:38;4.40;;;1.30;;
27999;SDS011;15328;50.860;10.562;2023-03-14T05:12:38;4.50;;;0.83;;
27999;SDS011;15328;50.860;10.562;2023-03-14T05:17:39;5.18;;;0.93;;
27999;SDS011;15328;50.860;10.562;2023-03-14T05:22:39;3.53;;;1.10;;
27999;SDS011;15328;50.860;10.562;2023-03-14T05:27:39;4.88;;;1.05;;
27999;SDS011;15328;50.860;10.562;2023-03-14T05:32:40;3.38;;;1.13;;
27999;SDS011;15328;50.860;10.562;2023-03-14T05:37:40;8.32;;;1.52;;
27999;SDS011;15328;50.860;10.562;2023-03-14T05:42:41;5.03;;;1.27;;
27999;SDS011;15328;50.860;10.562;2023-03-14T05:47:41;5.60;;;0.80;;
27999;SDS011;15328;50.860;10.562;2023-03-14T05:52:41;2.60;;;0.90;;
27999;SDS011;15328;50.860;10.562;2023-03-14T05:57:42;4.88;;;0.98;;
27999;SDS011;15328;50.860;10.562;2023-03-14T06:02:42;3.53;;;0.85;;
27999;SDS011;15328;50.860;10.562;2023-03-14T06:07:42;4.75;;;1.20;;
27999;SDS011;15328;50.860;10.562;2023-03-14T06:12:43;3.60;;;1.10;;
27999;SDS011;15328;50.860;10.562;2023-03-14T06:17:43;3.40;;;0.90;;
27999;SDS011;15328;50.860;10.562;2023-03-14T06:22:43;4.82;;;0.93;;
27999;SDS011;15328;50.860;10.562;2023-03-14T06:27:44;3.45;;;1.00;;
27999;SDS011;15328;50.860;10.562;2023-03-14T06:32:44;2.13;;;0.70;;
27999;SDS011;15328;50.860;10.562;2023-03-14T06:37:45;4.88;;;1.00;;
27999;SDS011;15328;50.860;10.562;2023-03-14T06:42:45;4.70;;;1.00;;
27999;SDS011;15328;50.860;10.562;2023-03-14T06:47:46;2.35;;;0.90;;
27999;SDS011;15328;50.860;10.562;2023-03-14T06:52:47;2.83;;;1.00;;
27999;SDS011;15328;50.860;10.562;2023-03-14T06:57:47;4.95;;;1.17;;
27999;SDS011;15328;50.860;10.562;2023-03-14T07:02:48;2.65;;;0.70;;
27999;SDS011;15328;50.860;10.562;2023-03-14T07:07:48;3.20;;;0.60;;
27999;SDS011;15328;50.860;10.562;2023-03-14T07:12:49;4.87;;;1.00;;
27999;SDS011;15328;50.860;10.562;2023-03-14T07:17:49;2.10;;;0.60;;
27999;SDS011;15328;50.860;10.562;2023-03-14T07:22:50;4.75;;;0.73;;
27999;SDS011;15328;50.860;10.562;2023-03-14T07:27:50;4.65;;;0.85;;
27999;SDS011;15328;50.860;10.562;2023-03-14T07:32:51;1.80;;;0.60;;
27999;SDS011;15328;50.860;10.562;2023-03-14T07:37:51;1.90;;;0.60;;
27999;SDS011;15328;50.860;10.562;2023-03-14T07:42:51;2.47;;;0.60;;
27999;SDS011;15328;50.860;10.562;2023-03-14T07:47:55;3.20;;;0.68;;
27999;SDS011;15328;50.860;10.562;2023-03-14T07:52:58;2.08;;;0.50;;
27999;SDS011;15328;50.860;10.562;2023-03-14T07:57:58;2.28;;;0.60;;
27999;SDS011;15328;50.860;10.562;2023-03-14T08:02:58;4.57;;;0.60;;
27999;SDS011;15328;50.860;10.562;2023-03-14T08:07:59;2.97;;;0.70;;
27999;SDS011;15328;50.860;10.562;2023-03-14T08:12:59;1.00;;;0.60;;
27999;SDS011;15328;50.860;10.562;2023-03-14T08:18:00;2.55;;;0.50;;
27999;SDS011;15328;50.860;10.562;2023-03-14T08:23:01;0.87;;;0.43;;
27999;SDS011;15328;50.860;10.562;2023-03-14T08:28:01;2.90;;;0.60;;
27999;SDS011;15328;50.860;10.562;2023-03-14T08:33:02;3.70;;;0.60;;
27999;SDS011;15328;50.860;10.562;2023-03-14T08:38:02;1.95;;;0.50;;
27999;SDS011;15328;50.860;10.562;2023-03-14T08:43:03;1.55;;;0.30;;
27999;SDS011;15328;50.860;10.562;2023-03-14T08:48:03;1.10;;;0.35;;
27999;SDS011;15328;50.860;10.562;2023-03-14T08:53:04;2.05;;;0.40;;
27999;SDS011;15328;50.860;10.562;2023-03-14T08:58:04;1.15;;;0.52;;
27999;SDS011;15328;50.860;10.562;2023-03-14T09:03:05;1.05;;;0.40;;
27999;SDS011;15328;50.860;10.562;2023-03-14T09:08:05;1.60;;;0.37;;
27999;SDS011;15328;50.860;10.562;2023-03-14T09:13:05;1.58;;;0.80;;
27999;SDS011;15328;50.860;10.562;2023-03-14T09:18:06;0.97;;;0.40;;
27999;SDS011;15328;50.860;10.562;2023-03-14T09:23:06;2.07;;;0.40;;
27999;SDS011;15328;50.860;10.562;2023-03-14T09:28:06;0.30;;;0.30;;
27999;SDS011;15328;50.860;10.562;2023-03-14T09:33:07;1.43;;;0.40;;
27999;SDS011;15328;50.860;10.562;2023-03-14T09:38:07;1.90;;;0.40;;
27999;SDS011;15328;50.860;10.562;2023-03-14T09:43:11;0.50;;;0.20;;
27999;SDS011;15328;50.860;10.562;2023-03-14T09:48:16;0.55;;;0.30;;
27999;SDS011;15328;50.860;10.562;2023-03-14T09:53:25;0.98;;;0.30;;
27999;SDS011;15328;50.860;10.562;2023-03-14T09:58:28;0.30;;;0.30;;
27999;SDS011;15328;50.860;10.562;2023-03-14T10:03:33;0.88;;;0.50;;
27999;SDS011;15328;50.860;10.562;2023-03-14T10:08:34;1.45;;;0.82;;
27999;SDS011;15328;50.860;10.562;2023-03-14T10:13:35;1.80;;;0.67;;
27999;SDS011;15328;50.860;10.562;2023-03-14T10:18:46;1.13;;;0.77;;
27999;SDS011;15328;50.860;10.562;2023-03-14T10:23:46;1.10;;;0.40;;
27999;SDS011;15328;50.860;10.562;2023-03-14T10:28:48;0.50;;;0.40;;
27999;SDS011;15328;50.860;10.562;2023-03-14T10:33:59;0.40;;;0.28;;
27999;SDS011;15328;50.860;10.562;2023-03-14T10:44:19;0.68;;;0.40;;
27999;SDS011;15328;50.860;10.562;2023-03-14T10:49:26;1.00;;;0.60;;
27999;SDS011;15328;50.860;10.562;2023-03-14T10:54:29;1.20;;;0.30;;
27999;SDS011;15328;50.860;10.562;2023-03-14T10:59:37;0.65;;;0.30;;
27999;SDS011;15328;50.860;10.562;2023-03-14T11:09:46;0.77;;;0.30;;
27999;SDS011;15328;50.860;10.562;2023-03-14T11:14:54;1.65;;;0.30;;
27999;SDS011;15328;50.860;10.562;2023-03-14T11:20:23;0.77;;;0.28;;
27999;SDS011;15328;50.860;10.562;2023-03-14T11:25:32;0.35;;;0.25;;
27999;SDS011;15328;50.860;10.562;2023-03-14T11:30:50;0.50;;;0.30;;
27999;SDS011;15328;50.860;10.562;2023-03-14T11:36:03;1.50;;;0.40;;
27999;SDS011;15328;50.860;10.562;2023-03-14T11:41:11;1.50;;;0.65;;
27999;SDS011;15328;50.860;10.562;2023-03-14T11:46:27;1.02;;;0.32;;
27999;SDS011;15328;50.860;10.562;2023-03-14T11:51:41;1.95;;;0.60;;
27999;SDS011;15328;50.860;10.562;2023-03-14T12:06:54;0.35;;;0.30;;
27999;SDS011;15328;50.860;10.562;2023-03-14T12:11:58;1.17;;;0.70;;
27999;SDS011;15328;50.860;10.562;2023-03-14T12:22:25;1.85;;;1.00;;
27999;SDS011;15328;50.860;10.562;2023-03-14T12:33:31;1.08;;;0.57;;
27999;SDS011;15328;50.860;10.562;2023-03-14T12:38:31;0.55;;;0.40;;
27999;SDS011;15328;50.860;10.562;2023-03-14T12:43:37;0.40;;;0.35;;
27999;SDS011;15328;50.860;10.562;2023-03-14T12:48:38;0.28;;;0.20;;
27999;SDS011;15328;50.860;10.562;2023-03-14T12:53:46;1.02;;;0.20;;
27999;SDS011;15328;50.860;10.562;2023-03-14T12:59:14;0.80;;;0.32;;
27999;SDS011;15328;50.860;10.562;2023-03-14T13:04:25;1.45;;;0.70;;
27999;SDS011;15328;50.860;10.562;2023-03-14T13:14:30;1.58;;;0.82;;
27999;SDS011;15328;50.860;10.562;2023-03-14T13:19:31;3.22;;;1.35;;
27999;SDS011;15328;50.860;10.562;2023-03-14T13:24:34;3.78;;;1.85;;
27999;SDS011;15328;50.860;10.562;2023-03-14T13:29:35;2.00;;;0.73;;
27999;SDS011;15328;50.860;10.562;2023-03-14T13:34:36;1.52;;;0.80;;
27999;SDS011;15328;50.860;10.562;2023-03-14T13:39:37;0.70;;;0.40;;
27999;SDS011;15328;50.860;10.562;2023-03-14T13:44:40;0.40;;;0.30;;
27999;SDS011;15328;50.860;10.562;2023-03-14T13:49:40;0.38;;;0.30;;
27999;SDS011;15328;50.860;10.562;2023-03-14T13:54:41;0.47;;;0.20;;
27999;SDS011;15328;50.860;10.562;2023-03-14T13:59:41;0.20;;;0.20;;
27999;SDS011;15328;50.860;10.562;2023-03-14T14:04:42;0.60;;;0.20;;
27999;SDS011;15328;50.860;10.562;2023-03-14T14:09:43;0.15;;;0.10;;
27999;SDS011;15328;50.860;10.562;2023-03-14T14:14:49;0.43;;;0.10;;
27999;SDS011;15328;50.860;10.562;2023-03-14T14:19:53;0.65;;;0.20;;
27999;SDS011;15328;50.860;10.562;2023-03-14T14:24:56;1.33;;;0.30;;
27999;SDS011;15328;50.860;10.562;2023-03-14T14:30:21;0.20;;;0.20;;
27999;SDS011;15328;50.860;10.562;2023-03-14T14:35:34;0.45;;;0.30;;
27999;SDS011;15328;50.860;10.562;2023-03-14T14:40:35;0.60;;;0.35;;
27999;SDS011;15328;50.860;10.562;2023-03-14T14:45:46;0.50;;;0.30;;
27999;SDS011;15328;50.860;10.562;2023-03-14T14:55:55;0.40;;;0.30;;
27999;SDS011;15328;50.860;10.562;2023-03-14T15:01:10;0.30;;;0.30;;
27999;SDS011;15328;50.860;10.562;2023-03-14T15:06:15;0.47;;;0.22;;
27999;SDS011;15328;50.860;10.562;2023-03-14T15:11:20;0.63;;;0.50;;
27999;SDS011;15328;50.860;10.562;2023-03-14T15:16:28;1.60;;;0.50;;
27999;SDS011;15328;50.860;10.562;2023-03-14T15:21:29;1.00;;;0.35;;
27999;SDS011;15328;50.860;10.562;2023-03-14T15:26:30;0.38;;;0.28;;
27999;SDS011;15328;50.860;10.562;2023-03-14T15:31:30;0.40;;;0.30;;
27999;SDS011;15328;50.860;10.562;2023-03-14T15:36:32;0.77;;;0.40;;
27999;SDS011;15328;50.860;10.562;2023-03-14T15:41:34;0.25;;;0.20;;
27999;SDS011;15328;50.860;10.562;2023-03-14T15:46:34;20.30;;;9.15;;
27999;SDS011;15328;50.860;10.562;2023-03-14T15:51:34;3.93;;;1.70;;
27999;SDS011;15328;50.860;10.562;2023-03-14T15:56:35;0.97;;;0.40;;
27999;SDS011;15328;50.860;10.562;2023-03-14T16:01:35;2.30;;;0.57;;
27999;SDS011;15328;50.860;10.562;2023-03-14T16:06:35;1.70;;;0.80;;
27999;SDS011;15328;50.860;10.562;2023-03-14T16:11:36;2.97;;;0.90;;
27999;SDS011;15328;50.860;10.562;2023-03-14T16:16:36;2.10;;;0.80;;
27999;SDS011;15328;50.860;10.562;2023-03-14T16:21:37;3.90;;;0.98;;
27999;SDS011;15328;50.860;10.562;2023-03-14T16:26:37;1.65;;;0.70;;
27999;SDS011;15328;50.860;10.562;2023-03-14T16:31:38;3.88;;;1.20;;
27999;SDS011;15328;50.860;10.562;2023-03-14T16:36:41;3.67;;;0.80;;
27999;SDS011;15328;50.860;10.562;2023-03-14T16:41:42;5.00;;;1.17;;
27999;SDS011;15328;50.860;10.562;2023-03-14T16:46:42;4.60;;;0.80;;
27999;SDS011;15328;50.860;10.562;2023-03-14T16:51:43;3.70;;;1.10;;
27999;SDS011;15328;50.860;10.562;2023-03-14T16:56:43;3.97;;;1.00;;
27999;SDS011;15328;50.860;10.562;2023-03-14T17:01:44;6.63;;;2.90;;
27999;SDS011;15328;50.860;10.562;2023-03-14T17:06:44;5.97;;;1.77;;
27999;SDS011;15328;50.860;10.562;2023-03-14T17:11:45;5.15;;;1.60;;
27999;SDS011;15328;50.860;10.562;2023-03-14T17:16:45;6.03;;;1.58;;
27999;SDS011;15328;50.860;10.562;2023-03-14T17:21:46;4.18;;;1.65;;
27999;SDS011;15328;50.860;10.562;2023-03-14T17:26:47;4.82;;;1.45;;
27999;SDS011;15328;50.860;10.562;2023-03-14T17:31:47;5.43;;;1.70;;
27999;SDS011;15328;50.860;10.562;2023-03-14T17:36:47;4.22;;;1.30;;
27999;SDS011;15328;50.860;10.562;2023-03-14T17:41:48;5.00;;;1.20;;
27999;SDS011;15328;50.860;10.562;2023-03-14T17:46:48;4.40;;;1.10;;
27999;SDS011;15328;50.860;10.562;2023-03-14T17:51:48;3.57;;;1.37;;
27999;SDS011;15328;50.860;10.562;2023-03-14T17:56:49;8.88;;;1.42;;
27999;SDS011;15328;50.860;10.562;2023-03-14T18:01:49;4.83;;;1.43;;
27999;SDS011;15328;50.860;10.562;2023-03-14T18:06:51;5.65;;;1.38;;
27999;SDS011;15328;50.860;10.562;2023-03-14T18:11:51;5.07;;;0.93;;
27999;SDS011;15328;50.860;10.562;2023-03-14T18:16:51;9.65;;;1.80;;
27999;SDS011;15328;50.860;10.562;2023-03-14T18:21:52;6.80;;;1.90;;
27999;SDS011;15328;50.860;10.562;2023-03-14T18:26:53;6.28;;;1.70;;
27999;SDS011;15328;50.860;10.562;2023-03-14T18:31:53;9.43;;;1.20;;
27999;SDS011;15328;50.860;10.562;2023-03-14T18:36:55;12.00;;;1.70;;
27999;SDS011;15328;50.860;10.562;2023-03-14T18:41:56;8.50;;;1.67;;
27999;SDS011;15328;50.860;10.562;2023-03-14T18:46:56;12.00;;;1.92;;
27999;SDS011;15328;50.860;10.562;2023-03-14T18:51:56;11.45;;;3.63;;
27999;SDS011;15328;50.860;10.562;2023-03-14T18:56:57;12.90;;;2.03;;
27999;SDS011;15328;50.860;10.562;2023-03-14T19:01:59;13.20;;;2.40;;
27999;SDS011;15328;50.860;10.562;2023-03-14T19:06:59;11.93;;;2.03;;
27999;SDS011;15328;50.860;10.562;2023-03-14T19:12:00;11.02;;;1.90;;
27999;SDS011;15328;50.860;10.562;2023-03-14T19:17:01;14.23;;;2.00;;
27999;SDS011;15328;50.860;10.562;2023-03-14T19:22:01;10.13;;;2.15;;
27999;SDS011;15328;50.860;10.562;2023-03-14T19:27:01;8.67;;;2.17;;
27999;SDS011;15328;50.860;10.562;2023-03-14T19:32:02;7.97;;;1.95;;
27999;SDS011;15328;50.860;10.562;2023-03-14T19:37:02;10.15;;;2.05;;
27999;SDS011;15328;50.860;10.562;2023-03-14T19:42:03;9.25;;;1.95;;
27999;SDS011;15328;50.860;10.562;2023-03-14T19:47:04;14.18;;;1.95;;
27999;SDS011;15328;50.860;10.562;2023-03-14T19:52:04;13.15;;;4.78;;
27999;SDS011;15328;50.860;10.562;2023-03-14T19:57:05;18.60;;;7.70;;
27999;SDS011;15328;50.860;10.562;2023-03-14T20:02:05;14.52;;;2.33;;
27999;SDS011;15328;50.860;10.562;2023-03-14T20:07:05;9.65;;;2.00;;
27999;SDS011;15328;50.860;10.562;2023-03-14T20:12:06;11.67;;;1.83;;
27999;SDS011;15328;50.860;10.562;2023-03-14T20:17:07;9.65;;;1.75;;
27999;SDS011;15328;50.860;10.562;2023-03-14T20:22:08;6.73;;;1.90;;
27999;SDS011;15328;50.860;10.562;2023-03-14T20:27:08;9.75;;;1.95;;
27999;SDS011;15328;50.860;10.562;2023-03-14T20:32:09;6.33;;;1.67;;
27999;SDS011;15328;50.860;10.562;2023-03-14T20:37:09;9.70;;;2.08;;
27999;SDS011;15328;50.860;10.562;2023-03-14T20:42:12;9.88;;;1.73;;
27999;SDS011;15328;50.860;10.562;2023-03-14T20:47:13;7.60;;;1.27;;
27999;SDS011;15328;50.860;10.562;2023-03-14T20:52:13;6.80;;;1.48;;
27999;SDS011;15328;50.860;10.562;2023-03-14T20:57:14;8.05;;;1.70;;
27999;SDS011;15328;50.860;10.562;2023-03-14T21:02:15;4.55;;;1.15;;
27999;SDS011;15328;50.860;10.562;2023-03-14T21:07:16;7.55;;;1.60;;
27999;SDS011;15328;50.860;10.562;2023-03-14T21:12:16;8.00;;;1.50;;
27999;SDS011;15328;50.860;10.562;2023-03-14T21:17:16;6.00;;;1.47;;
27999;SDS011;15328;50.860;10.562;2023-03-14T21:22:17;11.65;;;1.63;;
27999;SDS011;15328;50.860;10.562;2023-03-14T21:27:18;11.00;;;1.80;;
27999;SDS011;15328;50.860;10.562;2023-03-14T21:32:18;10.40;;;1.98;;
27999;SDS011;15328;50.860;10.562;2023-03-14T21:37:19;6.22;;;1.33;;
27999;SDS011;15328;50.860;10.562;2023-03-14T21:42:21;8.05;;;1.77;;
27999;SDS011;15328;50.860;10.562;2023-03-14T21:47:22;8.57;;;1.70;;
27999;SDS011;15328;50.860;10.562;2023-03-14T21:52:23;10.27;;;1.95;;
27999;SDS011;15328;50.860;10.562;2023-03-14T21:57:23;6.28;;;1.67;;
27999;SDS011;15328;50.860;10.562;2023-03-14T22:02:28;6.43;;;1.58;;
27999;SDS011;15328;50.860;10.562;2023-03-14T22:07:29;8.73;;;1.50;;
27999;SDS011;15328;50.860;10.562;2023-03-14T22:12:29;6.30;;;1.70;;
27999;SDS011;15328;50.860;10.562;2023-03-14T22:17:29;6.63;;;1.40;;
27999;SDS011;15328;50.860;10.562;2023-03-14T22:22:30;3.05;;;1.30;;
27999;SDS011;15328;50.860;10.562;2023-03-14T22:27:31;5.95;;;1.25;;
27999;SDS011;15328;50.860;10.562;2023-03-14T22:32:31;6.70;;;1.55;;
27999;SDS011;15328;50.860;10.562;2023-03-14T22:37:31;8.30;;;1.58;;
27999;SDS011;15328;50.860;10.562;2023-03-14T22:42:32;9.80;;;2.20;;
27999;SDS011;15328;50.860;10.562;2023-03-14T22:47:32;5.22;;;1.02;;
27999;SDS011;15328;50.860;10.562;2023-03-14T22:52:32;4.65;;;1.63;;
27999;SDS011;15328;50.860;10.562;2023-03-14T22:57:33;5.00;;;1.20;;
27999;SDS011;15328;50.860;10.562;2023-03-14T23:02:33;5.45;;;1.30;;
27999;SDS011;15328;50.860;10.562;2023-03-14T23:07:34;5.53;;;1.20;;
27999;SDS011;15328;50.860;10.562;2023-03-14T23:12:34;7.95;;;1.40;;
27999;SDS011;15328;50.860;10.562;2023-03-14T23:17:34;6.93;;;1.27;;
27999;SDS011;15328;50.860;10.562;2023-03-14T23:22:35;6.65;;;1.45;;
27999;SDS011;15328;50.860;10.562;2023-03-14T23:27:35;6.38;;;1.45;;
27999;SDS011;15328;50.860;10.562;2023-03-14T23:32:36;5.57;;;1.20;;
27999;SDS011;15328;50.860;10.562;2023-03-14T23:37:36;4.77;;;1.20;;
27999;SDS011;15328;50.860;10.562;2023-03-14T23:42:38;7.05;;;1.45;;
27999;SDS011;15328;50.860;10.562;2023-03-14T23:47:38;5.35;;;1.17;;
27999;SDS011;15328;50.860;10.562;2023-03-14T23:52:40;4.97;;;1.20;;
27999;SDS011;15328;50.860;10.562;2023-03-14T23:57:40;5.47;;;1.50;;
